Time;durP1;ratioP1;P1;durP2;ratioP2;P2;SDS_P1;SDS_P2;PMS_P1;PMS_P2;Temp;Humidity;BMP_temperature;BMP_pressure;BME280_temperature;BME280_humidity;BME280_pressure;Samples;Min_cycle;Max_cycle;Signal;HPM_P1;HPM_P2
2022/12/04 00:01:12;;;;;;;33.78;19.33;;;;;;;3.00;71.67;99972.53;5103348;28;20412;-83
2022/12/04 00:03:37;;;;;;;36.72;19.67;;;;;;;2.95;71.97;99975.03;5104125;28;20043;-84
2022/12/04 00:06:11;;;;;;;35.58;20.90;;;;;;;2.47;72.76;99980.41;5102602;27;20434;-84
2022/12/04 00:08:37;;;;;;;37.15;20.92;;;;;;;2.74;72.69;99968.81;5104446;28;20077;-84
2022/12/04 00:11:04;;;;;;;35.45;20.25;;;;;;;2.82;72.46;99974.00;5102500;27;20031;-84
2022/12/04 00:13:29;;;;;;;39.17;20.70;;;;;;;2.46;72.94;99968.00;5102004;28;20063;-84
2022/12/04 00:15:54;;;;;;;39.83;20.17;;;;;;;2.70;72.36;99954.94;5102886;27;20036;-84
2022/12/04 00:18:20;;;;;;;38.97;19.25;;;;;;;2.87;72.39;99966.13;5103808;28;20265;-83
2022/12/04 00:20:45;;;;;;;40.05;21.92;;;;;;;2.78;71.75;99951.22;5103287;27;20027;-84
2022/12/04 00:23:10;;;;;;;35.87;20.20;;;;;;;2.86;72.18;99953.69;5104377;28;20482;-84
2022/12/04 00:25:35;;;;;;;43.60;21.43;;;;;;;3.02;71.59;99963.22;5103797;27;20276;-85
2022/12/04 00:28:01;;;;;;;35.85;19.83;;;;;;;2.84;71.89;99950.38;5103171;28;20249;-84
2022/12/04 00:30:27;;;;;;;38.42;21.45;;;;;;;2.83;71.84;99947.91;5103183;27;20108;-84
2022/12/04 00:32:52;;;;;;;35.60;18.92;;;;;;;2.94;72.39;99941.03;5102460;28;20027;-84
2022/12/04 00:35:17;;;;;;;41.17;20.13;;;;;;;2.96;71.32;99942.50;5101741;28;20044;-83
2022/12/04 00:37:42;;;;;;;39.93;21.23;;;;;;;2.86;72.29;99944.78;5100555;28;20024;-83
2022/12/04 00:40:08;;;;;;;34.10;18.57;;;;;;;2.76;71.92;99942.50;5100355;28;20741;-83
2022/12/04 00:42:33;;;;;;;34.65;17.48;;;;;;;2.80;72.12;99939.22;5100704;28;20291;-82
2022/12/04 00:44:58;;;;;;;29.53;18.23;;;;;;;2.83;72.22;99943.31;5101488;28;20043;-83
2022/12/04 00:47:24;;;;;;;32.45;16.60;;;;;;;2.84;72.42;99936.91;5102719;28;20248;-82
2022/12/04 00:49:49;;;;;;;32.70;16.98;;;;;;;2.65;72.74;99942.09;5102520;28;20035;-82
2022/12/04 00:52:15;;;;;;;34.17;21.58;;;;;;;2.79;72.82;99942.09;5101035;28;20032;-82
2022/12/04 00:54:40;;;;;;;33.88;18.08;;;;;;;2.94;71.80;99938.34;5099489;28;20472;-82
2022/12/04 00:57:05;;;;;;;35.78;18.95;;;;;;;2.86;72.25;99934.84;5099974;28;20124;-82
2022/12/04 00:59:30;;;;;;;34.35;19.85;;;;;;;2.77;72.53;99938.78;5102190;27;20066;-82
2022/12/04 01:01:56;;;;;;;29.52;18.27;;;;;;;2.66;73.44;99934.88;5102049;28;20074;-83
2022/12/04 01:04:21;;;;;;;33.20;17.88;;;;;;;2.80;72.69;99938.38;5100872;28;20050;-83
2022/12/04 01:06:46;;;;;;;35.35;18.95;;;;;;;2.95;71.84;99935.44;5103369;28;20027;-83
2022/12/04 01:09:12;;;;;;;38.47;21.02;;;;;;;3.03;71.78;99927.13;5100545;28;20024;-82
2022/12/04 01:11:37;;;;;;;36.90;18.52;;;;;;;3.00;72.14;99938.34;5101365;28;20469;-83
2022/12/04 01:14:03;;;;;;;30.15;16.60;;;;;;;2.80;72.28;99938.38;5101971;28;20081;-83
2022/12/04 01:16:34;;;;;;;37.78;19.55;;;;;;;2.51;72.89;99943.97;5101534;28;20027;-83
2022/12/04 01:19:00;;;;;;;41.95;20.48;;;;;;;2.69;72.62;99945.19;5101067;28;20028;-83
2022/12/04 01:21:26;;;;;;;32.80;18.30;;;;;;;2.64;73.41;99948.53;5099601;28;20032;-83
2022/12/04 01:23:51;;;;;;;27.35;15.70;;;;;;;2.95;72.70;99942.72;5101578;28;20115;-83
2022/12/04 01:26:16;;;;;;;40.67;19.95;;;;;;;2.67;73.32;99948.09;5100387;28;20028;-82
2022/12/04 01:28:41;;;;;;;28.63;18.70;;;;;;;2.76;72.55;99945.22;5100838;28;20031;-82
2022/12/04 01:31:08;;;;;;;25.35;16.80;;;;;;;2.76;72.63;99945.22;5101036;28;20096;-82
2022/12/04 01:33:35;;;;;;;31.95;17.90;;;;;;;2.74;72.54;99934.66;5102860;28;20122;-83
2022/12/04 01:36:02;;;;;;;30.05;18.33;;;;;;;2.84;72.12;99939.59;5100266;28;20027;-83
2022/12/04 01:38:28;;;;;;;28.25;16.67;;;;;;;2.79;72.60;99936.69;5099861;28;20036;-83
2022/12/04 01:40:54;;;;;;;29.60;17.67;;;;;;;2.81;72.78;99940.00;5100019;28;20028;-83
2022/12/04 01:43:20;;;;;;;25.83;18.25;;;;;;;2.83;72.85;99932.56;5100195;28;20040;-83
2022/12/04 01:45:49;;;;;;;28.92;15.98;;;;;;;2.76;72.52;99937.13;5100857;28;20028;-83
2022/12/04 01:48:27;;;;;;;32.13;17.60;;;;;;;2.76;72.74;99932.59;5101068;28;20550;-83
2022/12/04 01:50:57;;;;;;;28.92;18.77;;;;;;;2.86;72.17;99929.47;5100390;28;20416;-83
2022/12/04 01:53:23;;;;;;;35.35;19.42;;;;;;;2.96;72.46;99936.28;5101258;28;20027;-82
2022/12/04 01:55:49;;;;;;;32.42;17.90;;;;;;;2.84;72.25;99934.22;5099715;28;20039;-83
2022/12/04 01:58:20;;;;;;;32.13;16.05;;;;;;;2.80;72.57;99941.91;5101037;28;20040;-83
2022/12/04 02:00:49;;;;;;;32.30;15.95;;;;;;;2.64;73.49;99937.78;5099275;28;20473;-83
2022/12/04 02:03:15;;;;;;;32.53;15.55;;;;;;;2.71;72.75;99934.22;5100002;28;20038;-83
2022/12/04 02:05:40;;;;;;;29.27;17.17;;;;;;;2.62;73.97;99931.75;5100231;28;20099;-83
2022/12/04 02:08:05;;;;;;;28.65;15.73;;;;;;;2.85;72.71;99930.47;5099606;28;20028;-83
2022/12/04 02:10:51;;;;;;;31.17;17.05;;;;;;;2.54;73.39;99918.50;5099526;28;20397;-83
2022/12/04 02:13:27;;;;;;;29.25;15.52;;;;;;;2.74;72.41;99925.75;5099221;28;20131;-83
2022/12/04 02:16:07;;;;;;;32.42;16.90;;;;;;;2.80;73.05;99922.22;5098620;28;20028;-82
2022/12/04 02:18:39;;;;;;;34.03;19.05;;;;;;;2.94;72.48;99920.31;5099359;28;20463;-83
2022/12/04 02:21:30;;;;;;;28.95;15.35;;;;;;;3.09;72.48;99924.66;5100530;28;20035;-83
2022/12/04 02:24:16;;;;;;;29.58;16.25;;;;;;;2.73;72.93;99926.75;5097007;28;20059;-82
2022/12/04 02:27:01;;;;;;;28.38;14.82;;;;;;;2.89;72.75;99925.50;5099365;28;20028;-83
2022/12/04 02:29:35;;;;;;;28.83;16.13;;;;;;;2.94;72.33;99927.56;5102328;28;20028;-83
2022/12/04 02:32:26;;;;;;;28.45;15.77;;;;;;;2.87;72.79;99924.88;5100091;28;20032;-83
2022/12/04 02:35:07;;;;;;;29.80;17.30;;;;;;;2.98;72.50;99923.41;5100594;28;20039;-83
2022/12/04 02:37:43;;;;;;;27.45;16.17;;;;;;;2.84;71.92;99923.44;5099557;28;20273;-83
2022/12/04 02:40:27;;;;;;;27.13;15.23;;;;;;;2.78;72.13;99918.91;5098431;28;20103;-83
2022/12/04 02:43:03;;;;;;;26.35;14.00;;;;;;;2.77;72.42;99914.53;5099472;28;20031;-82
2022/12/04 02:45:38;;;;;;;27.95;14.90;;;;;;;2.61;72.88;99910.41;5097289;28;20031;-83
2022/12/04 02:48:06;;;;;;;29.33;17.38;;;;;;;2.87;72.00;99912.25;5099682;28;20335;-83
2022/12/04 02:50:36;;;;;;;26.42;16.23;;;;;;;2.80;72.95;99912.28;5098790;28;20040;-82
2022/12/04 02:53:19;;;;;;;29.48;17.67;;;;;;;2.87;72.69;99912.25;5099391;28;20454;-83
2022/12/04 02:55:51;;;;;;;31.85;17.08;;;;;;;2.92;72.04;99920.53;5099287;28;20024;-83
2022/12/04 02:58:26;;;;;;;28.75;15.73;;;;;;;2.97;72.02;99916.41;5099225;28;20037;-83
2022/12/04 03:00:55;;;;;;;21.13;13.88;;;;;;;2.68;73.18;99917.44;5099336;28;20062;-83
2022/12/04 03:03:25;;;;;;;28.23;14.38;;;;;;;2.59;73.27;99915.19;5098750;28;20040;-82
2022/12/04 03:05:59;;;;;;;29.15;15.15;;;;;;;2.68;73.00;99913.94;5097746;28;20495;-83
2022/12/04 03:08:30;;;;;;;22.02;13.65;;;;;;;2.78;73.35;99914.34;5099700;28;20043;-83
2022/12/04 03:10:59;;;;;;;29.75;18.05;;;;;;;2.61;73.76;99919.31;5098728;28;20055;-83
2022/12/04 03:14:16;;;;;;;28.13;15.93;;;;;;;2.61;73.46;99924.72;5099945;28;20051;-82
2022/12/04 03:16:42;;;;;;;23.77;14.55;;;;;;;2.58;73.54;99927.84;5036107;28;20095;-83
2022/12/04 03:19:38;;;;;;;24.50;13.20;;;;;;;2.58;73.24;99925.13;5035051;28;20050;-82
2022/12/04 03:22:08;;;;;;;27.02;14.80;;;;;;;2.58;73.86;99922.44;5080736;28;20123;-82
2022/12/04 03:24:39;;;;;;;23.95;13.38;;;;;;;2.62;73.05;99931.75;5097452;28;20042;-83
2022/12/04 03:27:30;;;;;;;25.52;13.80;;;;;;;2.78;73.01;99929.66;5098440;28;20028;-83
2022/12/04 03:30:20;;;;;;;27.67;16.23;;;;;;;2.51;73.16;99924.28;5097955;28;20041;-83
2022/12/04 03:32:59;;;;;;;26.48;15.57;;;;;;;2.71;73.19;99928.84;5098447;28;20028;-83
2022/12/04 03:35:27;;;;;;;24.40;13.93;;;;;;;2.41;74.43;99933.63;5097082;28;20039;-83
2022/12/04 03:38:02;;;;;;;21.13;14.05;;;;;;;2.53;73.74;99930.28;5099231;28;20560;-83
2022/12/04 03:40:40;;;;;;;25.58;15.80;;;;;;;2.50;72.95;99933.41;5098599;28;20035;-83
2022/12/04 03:43:11;;;;;;;26.20;14.23;;;;;;;2.55;73.28;99925.53;5098063;28;20023;-83
2022/12/04 03:45:49;;;;;;;21.25;11.65;;;;;;;2.61;73.25;99922.00;5098686;28;20206;-83
2022/12/04 03:48:20;;;;;;;20.85;13.68;;;;;;;2.76;72.64;99921.81;5098933;28;20040;-83
2022/12/04 03:50:56;;;;;;;21.60;13.20;;;;;;;2.65;73.00;99920.56;5098653;28;20032;-83
2022/12/04 03:53:32;;;;;;;25.98;13.68;;;;;;;2.64;73.20;99924.31;5097864;28;20032;-82
2022/12/04 03:56:05;;;;;;;26.45;13.90;;;;;;;2.58;73.04;99919.75;5098081;28;20522;-83
2022/12/04 03:58:34;;;;;;;21.83;11.73;;;;;;;2.54;72.71;99916.63;5098451;28;20023;-83
2022/12/04 04:01:02;;;;;;;21.35;12.30;;;;;;;2.57;73.58;99918.09;5099559;28;20032;-83
2022/12/04 04:03:32;;;;;;;25.02;13.63;;;;;;;2.84;72.67;99915.38;5098035;28;20037;-83
2022/12/04 04:06:08;;;;;;;25.58;11.48;;;;;;;2.74;71.59;99914.97;5097140;28;20031;-83
2022/12/04 04:08:37;;;;;;;31.52;11.75;;;;;;;2.68;72.51;99912.06;5097721;28;20031;-83
2022/12/04 04:11:55;;;;;;;24.40;14.38;;;;;;;2.52;73.53;99912.50;5099010;28;20028;-83
2022/12/04 04:25:41;;;;;;;24.20;12.85;;;;;;;2.59;73.05;99932.16;5097048;28;20050;-83
2022/12/04 04:28:34;;;;;;;23.45;12.32;;;;;;;2.54;73.04;99942.75;5097667;28;20024;-83
2022/12/04 04:31:23;;;;;;;20.52;12.30;;;;;;;2.73;72.75;99932.16;5102480;28;20456;-83
2022/12/04 04:34:24;;;;;;;30.80;15.00;;;;;;;2.63;72.81;99933.41;5102605;28;20120;-83
2022/12/04 04:37:01;;;;;;;23.55;11.35;;;;;;;2.82;72.28;99930.91;5102207;28;20031;-82
2022/12/04 04:39:53;;;;;;;20.15;12.40;;;;;;;2.52;72.92;99931.34;5101370;28;20050;-83
2022/12/04 04:42:27;;;;;;;22.15;12.55;;;;;;;2.62;72.55;99926.38;5096403;28;20503;-83
2022/12/04 04:44:59;;;;;;;25.85;15.07;;;;;;;2.78;72.49;99926.97;5102005;28;20035;-83
2022/12/04 04:47:31;;;;;;;18.17;12.35;;;;;;;2.74;72.90;99923.03;5101965;28;20121;-83
2022/12/04 04:50:00;;;;;;;27.77;13.85;;;;;;;2.78;72.49;99927.81;5100328;28;20031;-83
2022/12/04 04:52:26;;;;;;;19.50;13.05;;;;;;;2.73;72.41;99924.06;5100826;28;20462;-83
2022/12/04 04:54:51;;;;;;;19.05;12.98;;;;;;;2.90;71.75;99916.41;5101191;28;20024;-83
2022/12/04 04:57:34;;;;;;;20.85;11.02;;;;;;;2.83;71.71;99915.59;5101492;28;20154;-83
2022/12/04 05:00:00;;;;;;;24.88;13.88;;;;;;;2.71;72.47;99915.38;5101208;28;20136;-83
2022/12/04 05:02:26;;;;;;;28.02;13.65;;;;;;;2.68;72.39;99914.75;5102186;28;20034;-83
2022/12/04 05:04:51;;;;;;;25.17;12.60;;;;;;;2.63;73.06;99908.34;5101958;28;20028;-83
2022/12/04 05:07:16;;;;;;;24.45;12.82;;;;;;;2.80;72.69;99911.44;5099929;28;20461;-82
2022/12/04 05:09:42;;;;;;;23.55;11.38;;;;;;;2.89;71.80;99903.94;5102321;28;20036;-83
2022/12/04 05:12:08;;;;;;;22.75;12.75;;;;;;;2.92;71.40;99898.16;5100806;28;20031;-83
2022/12/04 05:14:33;;;;;;;22.27;12.27;;;;;;;2.71;72.31;99907.28;5101068;28;20058;-82
2022/12/04 05:16:58;;;;;;;30.08;12.13;;;;;;;2.77;72.12;99906.47;5102414;28;20032;-83
2022/12/04 05:22:08;;;;;;;28.30;12.02;;;;;;;2.66;72.94;99898.00;5101136;28;20291;-83
2022/12/04 05:24:33;;;;;;;28.35;15.23;;;;;;;2.84;72.35;99912.69;5100860;28;20485;-83
2022/12/04 05:26:59;;;;;;;23.25;12.02;;;;;;;2.74;72.14;99896.97;5100862;28;20024;-82
2022/12/04 05:29:24;;;;;;;22.35;13.30;;;;;;;2.80;72.23;99909.59;5101089;28;20142;-83
2022/12/04 05:31:49;;;;;;;23.57;14.30;;;;;;;2.79;71.81;99902.53;5101225;28;20020;-83
2022/12/04 05:34:14;;;;;;;20.57;11.67;;;;;;;2.67;72.27;99902.34;5101789;28;20253;-83
2022/12/04 05:36:40;;;;;;;21.40;12.07;;;;;;;2.78;72.21;99900.06;5101567;28;20255;-83
2022/12/04 05:39:05;;;;;;;27.70;12.77;;;;;;;2.76;71.98;99902.97;5101948;28;20122;-83
2022/12/04 05:41:30;;;;;;;20.70;12.73;;;;;;;2.70;72.43;99901.09;5101393;28;20252;-83
2022/12/04 05:43:55;;;;;;;19.80;11.87;;;;;;;2.33;73.01;99901.53;5101510;28;20264;-83
2022/12/04 05:46:21;;;;;;;24.80;12.67;;;;;;;2.60;72.96;99896.16;5101664;28;20652;-82
2022/12/04 05:48:46;;;;;;;19.30;12.23;;;;;;;2.57;72.86;99893.84;5101821;28;20253;-83
2022/12/04 05:51:11;;;;;;;20.27;12.20;;;;;;;2.49;72.58;99896.75;5100713;28;20092;-82
2022/12/04 05:53:37;;;;;;;21.20;10.63;;;;;;;2.50;72.34;99890.34;5101278;28;20510;-83
2022/12/04 05:56:04;;;;;;;18.92;11.02;;;;;;;2.59;72.12;99891.78;5100245;28;20028;-83
2022/12/04 05:58:30;;;;;;;20.42;11.70;;;;;;;2.63;72.34;99894.88;5100979;28;20019;-83
2022/12/04 06:00:55;;;;;;;23.33;13.57;;;;;;;2.81;71.84;99896.94;5101498;28;20077;-83
2022/12/04 06:03:20;;;;;;;16.70;10.23;;;;;;;2.63;71.22;99908.34;5099179;28;20116;-83
2022/12/04 06:05:46;;;;;;;19.80;10.80;;;;;;;2.70;71.22;99905.66;5100502;28;20032;-83
2022/12/04 06:08:11;;;;;;;25.95;12.80;;;;;;;2.48;71.58;99903.19;5099786;28;20447;-82
2022/12/04 06:10:37;;;;;;;20.38;10.45;;;;;;;2.43;71.22;99901.09;5099896;28;20188;-82
2022/12/04 06:13:04;;;;;;;17.75;9.35;;;;;;;2.09;72.69;99911.84;5100406;28;20042;-83
2022/12/04 06:15:29;;;;;;;17.42;8.93;;;;;;;1.97;73.23;99915.13;5100454;28;20071;-83
2022/12/04 06:17:54;;;;;;;21.67;9.83;;;;;;;2.09;72.30;99903.78;5099561;28;20062;-83
2022/12/04 06:20:19;;;;;;;20.05;11.35;;;;;;;1.94;73.10;99904.78;5100148;28;20253;-83
2022/12/04 06:22:45;;;;;;;19.02;8.98;;;;;;;2.34;72.31;99897.78;5099166;28;20111;-83
2022/12/04 06:25:10;;;;;;;21.37;11.53;;;;;;;2.26;71.99;99912.28;5101326;28;20024;-83
2022/12/04 06:27:35;;;;;;;16.87;10.00;;;;;;;2.39;71.93;99903.38;5100014;28;20256;-83
2022/12/04 06:30:01;;;;;;;20.40;10.65;;;;;;;2.16;72.48;99912.69;5099065;28;20252;-83
2022/12/04 06:32:27;;;;;;;17.08;9.73;;;;;;;2.28;71.74;99907.50;5098823;28;20061;-83
2022/12/04 06:34:53;;;;;;;18.52;8.88;;;;;;;2.25;71.81;99909.78;5099882;28;20119;-83
2022/12/04 06:37:20;;;;;;;22.92;10.38;;;;;;;2.04;72.03;99907.09;5101646;28;20039;-83
2022/12/04 06:39:45;;;;;;;17.75;11.02;;;;;;;1.87;73.24;99914.72;5099212;28;20103;-83
2022/12/04 06:42:11;;;;;;;20.15;10.10;;;;;;;2.15;72.61;99916.41;5098687;28;20162;-83
2022/12/04 06:44:36;;;;;;;18.77;10.23;;;;;;;2.20;72.07;99913.94;5099651;28;20024;-83
2022/12/04 06:47:02;;;;;;;14.67;8.00;;;;;;;1.98;72.49;99906.03;5103437;28;20247;-83
2022/12/04 06:49:27;;;;;;;20.15;8.68;;;;;;;1.78;73.35;99915.91;5098287;28;20581;-82
2022/12/04 06:51:52;;;;;;;17.95;9.48;;;;;;;2.08;72.59;99915.56;5098743;28;20032;-83
2022/12/04 06:54:17;;;;;;;17.60;9.63;;;;;;;2.22;71.75;99911.88;5099126;28;20062;-83
2022/12/04 06:56:43;;;;;;;15.10;9.82;;;;;;;2.34;71.80;99913.94;5100867;28;20122;-83
2022/12/04 06:59:09;;;;;;;16.60;9.50;;;;;;;2.06;71.97;99910.41;5098524;28;20047;-83
2022/12/04 07:01:34;;;;;;;15.23;8.75;;;;;;;1.82;73.58;99915.31;5098055;28;20299;-83
2022/12/04 07:04:02;;;;;;;17.77;9.07;;;;;;;1.99;73.22;99914.94;5099389;28;20082;-83
2022/12/04 07:06:33;;;;;;;20.15;9.93;;;;;;;2.13;72.44;99913.09;5099537;28;20038;-81
2022/12/04 07:09:02;;;;;;;15.88;9.25;;;;;;;2.20;72.22;99913.09;5098731;28;20114;-82
2022/12/04 07:11:28;;;;;;;16.42;9.63;;;;;;;2.14;72.21;99924.69;5098860;28;20028;-83
2022/12/04 07:13:54;;;;;;;17.83;10.05;;;;;;;2.17;72.34;99913.53;5098374;28;20089;-82
2022/12/04 07:16:21;;;;;;;20.17;10.27;;;;;;;2.00;71.95;99913.06;5099858;28;20058;-83
2022/12/04 07:18:49;;;;;;;13.85;9.13;;;;;;;2.35;71.66;99926.38;5097462;28;20028;-82
2022/12/04 07:21:16;;;;;;;17.90;10.07;;;;;;;2.42;71.93;99918.31;5099032;28;20039;-82
2022/12/04 07:23:41;;;;;;;18.05;9.73;;;;;;;2.35;71.37;99925.53;5097419;28;20039;-83
2022/12/04 07:26:09;;;;;;;14.40;8.90;;;;;;;2.41;71.79;99920.16;5098481;28;20055;-83
2022/12/04 07:28:36;;;;;;;15.65;8.32;;;;;;;2.54;71.05;99923.91;5098974;28;20048;-82
2022/12/04 07:31:06;;;;;;;17.25;10.27;;;;;;;2.33;71.47;99923.06;5099411;28;20061;-80
2022/12/04 07:33:33;;;;;;;16.70;8.48;;;;;;;2.29;72.16;99921.81;5096871;28;20547;-83
2022/12/04 07:36:00;;;;;;;15.02;8.20;;;;;;;2.32;72.25;99924.06;5097593;28;20075;-83
2022/12/04 07:38:26;;;;;;;15.32;9.40;;;;;;;2.41;70.82;99922.00;5096697;28;20016;-83
2022/12/04 07:40:55;;;;;;;23.65;10.35;;;;;;;2.39;71.70;99927.63;5097362;28;20076;-83
2022/12/04 07:43:20;;;;;;;22.90;11.20;;;;;;;2.49;71.02;99931.75;5115076;28;20036;-83
2022/12/04 07:45:45;;;;;;;20.37;9.47;;;;;;;2.67;70.96;99921.19;5098370;28;20076;-83
2022/12/04 07:48:11;;;;;;;16.83;8.93;;;;;;;2.76;70.60;99937.13;5097351;28;20271;-83
2022/12/04 07:50:36;;;;;;;16.97;8.53;;;;;;;2.82;70.69;99925.53;5096587;28;20036;-83
2022/12/04 07:53:01;;;;;;;19.10;10.00;;;;;;;2.12;72.09;99941.03;5098298;28;20253;-83
2022/12/04 07:55:26;;;;;;;18.40;10.10;;;;;;;2.60;71.06;99927.63;5098632;28;20319;-83
2022/12/04 07:57:51;;;;;;;16.50;9.70;;;;;;;2.49;71.94;99931.75;5098945;28;20252;-84
2022/12/04 08:00:17;;;;;;;14.33;8.60;;;;;;;2.51;71.68;99926.97;5097204;28;20283;-82
2022/12/04 08:02:43;;;;;;;15.80;8.88;;;;;;;2.48;71.36;99930.09;5095149;28;20298;-82
2022/12/04 08:05:08;;;;;;;16.85;9.30;;;;;;;2.56;70.70;99943.34;5101687;28;20032;-83
2022/12/04 08:07:33;;;;;;;15.10;10.30;;;;;;;2.82;70.34;99948.94;5101843;28;20056;-86
2022/12/04 08:09:58;;;;;;;16.70;9.07;;;;;;;2.25;71.65;99964.44;5104689;28;20035;-87
2022/12/04 08:12:24;;;;;;;18.63;9.10;;;;;;;2.01;72.57;99957.78;5104346;28;20031;-84
2022/12/04 08:14:49;;;;;;;21.65;9.45;;;;;;;1.92;72.77;99954.44;5101663;28;20284;-84
2022/12/04 08:17:14;;;;;;;16.00;10.38;;;;;;;2.16;72.83;99960.28;5100950;28;20032;-84
2022/12/04 08:19:40;;;;;;;17.42;9.75;;;;;;;2.11;72.65;99947.44;5104000;28;20077;-85
2022/12/04 08:22:05;;;;;;;20.13;10.53;;;;;;;2.12;72.50;99948.25;5102292;28;20073;-84
2022/12/04 08:24:31;;;;;;;17.67;10.48;;;;;;;2.20;71.98;99951.59;5104162;28;20783;-84
2022/12/04 08:26:56;;;;;;;20.85;11.07;;;;;;;2.31;72.45;99952.03;5102138;27;20023;-83
2022/12/04 08:29:21;;;;;;;19.00;10.02;;;;;;;2.28;72.34;99953.25;5101379;28;20043;-83
2022/12/04 08:31:46;;;;;;;17.93;9.87;;;;;;;2.29;72.35;99949.56;5102535;28;20481;-84
2022/12/04 08:34:12;;;;;;;17.57;8.83;;;;;;;2.43;71.83;99949.56;5102899;28;20249;-84
2022/12/04 08:36:37;;;;;;;17.85;9.25;;;;;;;2.27;72.74;99951.63;5103313;28;20296;-84
2022/12/04 08:39:03;;;;;;;16.47;8.70;;;;;;;2.50;72.19;99958.44;5100328;28;20028;-85
2022/12/04 08:41:28;;;;;;;18.63;9.10;;;;;;;2.74;71.67;99949.97;5099059;28;20745;-83
2022/12/04 08:43:54;;;;;;;17.40;9.82;;;;;;;2.50;71.57;99947.69;5098707;28;20027;-82
2022/12/04 08:46:22;;;;;;;16.65;8.02;;;;;;;2.62;71.17;99950.59;5100914;28;20060;-84
2022/12/04 08:48:47;;;;;;;19.25;9.68;;;;;;;2.29;72.05;99956.78;5097405;28;20066;-83
2022/12/04 08:51:15;;;;;;;18.77;10.27;;;;;;;2.39;72.47;99948.31;5100138;28;20772;-83
2022/12/04 08:53:41;;;;;;;17.13;9.70;;;;;;;2.22;73.17;99948.69;5102667;28;20027;-83
2022/12/04 08:56:06;;;;;;;17.48;9.07;;;;;;;2.42;72.50;99954.09;5099624;28;20036;-85
2022/12/04 08:58:32;;;;;;;20.60;10.00;;;;;;;2.56;72.34;99954.13;5101295;28;20341;-82
2022/12/04 09:01:04;;;;;;;17.48;9.52;;;;;;;2.68;71.55;99951.63;5101293;28;20028;-82
2022/12/04 09:03:29;;;;;;;17.08;9.02;;;;;;;2.74;71.25;99950.81;5101821;28;20043;-84
2022/12/04 09:05:57;;;;;;;19.13;12.20;;;;;;;2.71;70.49;99939.59;5100899;28;20040;-82
2022/12/04 09:08:23;;;;;;;16.88;10.20;;;;;;;2.75;71.26;99954.31;5100561;28;20249;-81
2022/12/04 09:10:48;;;;;;;15.93;8.73;;;;;;;2.82;70.74;99952.47;5101249;27;20057;-81
2022/12/04 09:13:13;;;;;;;16.47;8.47;;;;;;;2.80;71.49;99954.53;5101692;28;20060;-86
2022/12/04 09:15:39;;;;;;;19.87;10.43;;;;;;;2.63;71.02;99949.56;5099484;28;20338;-82
2022/12/04 09:18:05;;;;;;;17.92;9.07;;;;;;;2.77;71.22;99950.38;5101336;28;20852;-81
2022/12/04 09:20:31;;;;;;;17.27;9.88;;;;;;;2.80;70.69;99947.28;5100266;28;20496;-81
2022/12/04 09:22:56;;;;;;;15.18;10.02;;;;;;;2.77;71.37;99950.38;5100696;28;20050;-88
2022/12/04 09:25:21;;;;;;;19.67;9.57;;;;;;;2.90;71.18;99948.72;5101728;28;20035;-84
2022/12/04 09:27:47;;;;;;;17.08;10.15;;;;;;;2.79;71.08;99947.47;5098306;28;20291;-83
2022/12/04 09:30:12;;;;;;;20.80;11.70;;;;;;;3.03;70.95;99940.59;5101256;28;20032;-84
2022/12/04 09:32:38;;;;;;;14.68;9.40;;;;;;;2.91;70.75;99937.72;5101135;28;20733;-84
2022/12/04 09:35:04;;;;;;;16.92;12.07;;;;;;;2.86;71.03;99942.94;5101171;28;20069;-84
2022/12/04 09:37:29;;;;;;;18.38;9.55;;;;;;;3.04;70.88;99938.75;5100502;28;20057;-85
2022/12/04 09:39:54;;;;;;;19.98;9.70;;;;;;;3.00;70.78;99942.91;5100132;28;20047;-84
2022/12/04 09:42:31;;;;;;;20.73;12.48;;;;;;;3.15;70.14;99951.56;5100408;28;20678;-84
2022/12/04 09:45:16;;;;;;;33.13;14.65;;;;;;;3.11;70.22;99954.91;5099672;28;20034;-85
2022/12/04 09:47:45;;;;;;;27.35;14.25;;;;;;;3.10;70.57;99953.25;5099793;28;20534;-84
2022/12/04 09:50:33;;;;;;;22.35;14.80;;;;;;;3.20;70.19;99952.78;5100757;28;20526;-86
2022/12/04 09:53:08;;;;;;;23.55;13.63;;;;;;;3.21;70.21;99963.38;5096861;28;20032;-83
2022/12/04 09:55:43;;;;;;;18.88;12.18;;;;;;;3.15;70.07;99956.94;5100304;28;20066;-85
2022/12/04 09:58:13;;;;;;;19.38;13.43;;;;;;;3.05;70.71;99951.19;5100322;28;20108;-84
2022/12/04 10:00:41;;;;;;;19.33;12.57;;;;;;;3.21;70.71;99965.25;5099933;28;20038;-83
2022/12/04 10:03:15;;;;;;;21.58;11.65;;;;;;;3.07;71.08;99950.97;5099594;28;20027;-81
2022/12/04 10:06:13;;;;;;;17.00;8.43;;;;;;;3.06;70.90;99954.69;5100298;28;20028;-83
2022/12/04 10:08:40;;;;;;;15.18;9.63;;;;;;;3.03;71.69;99954.06;5099568;28;20255;-83
2022/12/04 10:11:18;;;;;;;23.15;12.52;;;;;;;2.87;72.39;99952.66;5098969;28;20051;-84
2022/12/04 10:14:06;;;;;;;22.17;11.65;;;;;;;2.97;71.70;99948.72;5100717;28;20056;-82
2022/12/04 10:16:37;;;;;;;25.00;11.65;;;;;;;3.12;70.79;99956.53;5100439;28;20067;-82
2022/12/04 10:19:26;;;;;;;17.08;10.50;;;;;;;3.06;70.48;99954.69;5100336;28;20055;-82
2022/12/04 10:22:10;;;;;;;19.38;10.57;;;;;;;2.46;72.53;99965.31;5100456;28;20100;-83
2022/12/04 10:24:48;;;;;;;19.58;11.13;;;;;;;2.59;72.40;99953.69;5097695;28;20035;-85
2022/12/04 10:27:28;;;;;;;18.13;10.13;;;;;;;2.84;71.86;99950.38;5099287;28;20057;-83
2022/12/04 10:30:27;;;;;;;21.75;10.48;;;;;;;2.78;71.62;99956.59;5098308;28;20035;-82
2022/12/04 10:33:02;;;;;;;20.95;9.80;;;;;;;3.03;71.03;99945.19;5074673;28;20112;-82
2022/12/04 10:35:28;;;;;;;;;;;;;;;2.94;71.12;99938.34;5099436;28;20043;-83
2022/12/04 10:38:02;;;;;;;19.55;9.93;;;;;;;2.89;71.99;99925.50;5100562;28;19926;-82
2022/12/04 10:40:36;;;;;;;18.23;11.40;;;;;;;3.24;71.31;99919.84;5099107;28;20028;-83
2022/12/04 10:43:11;;;;;;;19.85;10.82;;;;;;;3.19;71.18;99929.59;5098267;28;20024;-82
2022/12/04 10:45:36;;;;;;;19.73;10.30;;;;;;;3.19;70.62;99930.44;5094296;28;20113;-82
2022/12/04 10:48:01;;;;;;;19.25;10.27;;;;;;;3.07;71.19;99927.53;5097132;28;20425;-82
2022/12/04 10:50:27;;;;;;;21.23;10.50;;;;;;;2.87;72.45;99928.41;5097038;28;20038;-81
2022/12/04 10:52:52;;;;;;;17.35;10.63;;;;;;;3.07;71.53;99921.34;5098397;28;20059;-82
2022/12/04 10:55:29;;;;;;;18.67;11.63;;;;;;;3.21;70.95;99922.97;5099060;28;20044;-82
2022/12/04 10:57:54;;;;;;;17.20;9.98;;;;;;;3.07;71.72;99926.72;5100117;28;20401;-82
2022/12/04 11:00:28;;;;;;;20.25;11.30;;;;;;;3.07;71.51;99921.34;5100390;28;20035;-82
2022/12/04 11:02:58;;;;;;;19.60;9.65;;;;;;;3.00;72.12;99910.56;5099424;28;20035;-82
2022/12/04 11:05:31;;;;;;;19.77;11.05;;;;;;;2.97;72.38;99900.22;5098952;28;20051;-83
2022/12/04 11:07:59;;;;;;;19.00;10.45;;;;;;;3.02;72.23;99893.16;5097822;28;20016;-82
2022/12/04 11:10:40;;;;;;;18.50;10.05;;;;;;;3.19;72.19;99881.94;5099137;28;20188;-83
2022/12/04 11:13:15;;;;;;;18.80;10.60;;;;;;;3.33;71.39;99881.88;5099610;28;20052;-83
2022/12/04 11:15:43;;;;;;;19.25;11.32;;;;;;;3.35;71.56;99880.63;5097195;28;20020;-82
2022/12/04 11:18:16;;;;;;;18.38;11.32;;;;;;;3.28;71.65;99877.09;5098645;28;20206;-82
2022/12/04 11:20:49;;;;;;;23.73;10.82;;;;;;;3.26;72.11;99882.72;5099011;28;20111;-83
2022/12/04 11:23:15;;;;;;;21.10;10.23;;;;;;;3.28;71.99;99887.88;5097693;28;20088;-83
2022/12/04 11:25:48;;;;;;;17.65;10.73;;;;;;;3.40;71.41;99881.84;5096661;28;20342;-81
2022/12/04 11:28:17;;;;;;;19.70;11.27;;;;;;;3.40;71.41;99879.16;5096475;28;20036;-84
2022/12/04 11:30:50;;;;;;;30.20;10.55;;;;;;;3.45;71.70;99885.56;5095610;28;20079;-83
2022/12/04 11:33:36;;;;;;;18.73;9.80;;;;;;;3.49;71.56;99891.34;5097750;28;20028;-83
2022/12/04 11:36:05;;;;;;;16.73;10.70;;;;;;;3.30;72.27;99883.13;5098070;28;20295;-83
2022/12/04 11:38:34;;;;;;;19.40;11.23;;;;;;;3.18;72.34;99879.41;5096975;27;20081;-84
2022/12/04 11:41:02;;;;;;;19.80;11.32;;;;;;;3.14;72.75;99882.56;5097062;28;20027;-83
2022/12/04 11:43:29;;;;;;;21.52;11.65;;;;;;;3.36;72.38;99884.13;5099705;28;20032;-83
2022/12/04 11:45:56;;;;;;;20.75;11.07;;;;;;;3.50;72.52;99876.81;5098634;28;20042;-83
2022/12/04 11:48:22;;;;;;;20.95;12.68;;;;;;;3.55;71.83;99870.78;5098999;28;20109;-83
2022/12/04 11:50:56;;;;;;;19.48;11.65;;;;;;;3.37;72.09;99866.94;5099340;28;20024;-82
2022/12/04 11:53:53;;;;;;;21.25;12.32;;;;;;;3.44;72.39;99864.22;5099407;27;20038;-82